地図

経路データ

SID SEASON NUMBER BASIN SUBBASIN NAME ISO_TIME NATURE LAT LON WMO_WIND WMO_PRES WMO_AGENCY TRACK_TYPE DIST2LAND LANDFALL IFLAG USA_AGENCY USA_ATCF_ID USA_LAT USA_LON USA_RECORD USA_STATUS USA_WIND USA_PRES USA_SSHS USA_R34_NE USA_R34_SE USA_R34_SW USA_R34_NW USA_R50_NE USA_R50_SE USA_R50_SW USA_R50_NW USA_R64_NE USA_R64_SE USA_R64_SW USA_R64_NW USA_POCI USA_ROCI USA_RMW USA_EYE TOKYO_LAT TOKYO_LON TOKYO_GRADE TOKYO_WIND TOKYO_PRES TOKYO_R50_DIR TOKYO_R50_LONG TOKYO_R50_SHORT TOKYO_R30_DIR TOKYO_R30_LONG TOKYO_R30_SHORT TOKYO_LAND CMA_LAT CMA_LON CMA_CAT CMA_WIND CMA_PRES HKO_LAT HKO_LON HKO_CAT HKO_WIND HKO_PRES NEWDELHI_LAT NEWDELHI_LON NEWDELHI_GRADE NEWDELHI_WIND NEWDELHI_PRES NEWDELHI_CI NEWDELHI_DP NEWDELHI_POCI REUNION_LAT REUNION_LON REUNION_TYPE REUNION_WIND REUNION_PRES REUNION_TNUM REUNION_CI REUNION_RMW REUNION_R34_NE REUNION_R34_SE REUNION_R34_SW REUNION_R34_NW REUNION_R50_NE REUNION_R50_SE REUNION_R50_SW REUNION_R50_NW REUNION_R64_NE REUNION_R64_SE REUNION_R64_SW REUNION_R64_NW BOM_LAT BOM_LON BOM_TYPE BOM_WIND BOM_PRES BOM_TNUM BOM_CI BOM_RMW BOM_R34_NE BOM_R34_SE BOM_R34_SW BOM_R34_NW BOM_R50_NE BOM_R50_SE BOM_R50_SW BOM_R50_NW BOM_R64_NE BOM_R64_SE BOM_R64_SW BOM_R64_NW BOM_ROCI BOM_POCI BOM_EYE BOM_POS_METHOD BOM_PRES_METHOD NADI_LAT NADI_LON NADI_CAT NADI_WIND NADI_PRES WELLINGTON_LAT WELLINGTON_LON WELLINGTON_WIND WELLINGTON_PRES DS824_LAT DS824_LON DS824_STAGE DS824_WIND DS824_PRES TD9636_LAT TD9636_LON TD9636_STAGE TD9636_WIND TD9636_PRES TD9635_LAT TD9635_LON TD9635_WIND TD9635_PRES TD9635_ROCI NEUMANN_LAT NEUMANN_LON NEUMANN_CLASS NEUMANN_WIND NEUMANN_PRES MLC_LAT MLC_LON MLC_CLASS MLC_WIND MLC_PRES USA_GUST BOM_GUST BOM_GUST_PER REUNION_GUST REUNION_GUST_PER USA_SEAHGT USA_SEARAD_NE USA_SEARAD_SE USA_SEARAD_SW USA_SEARAD_NW STORM_SPEED STORM_DIR
1964273N21280 1964 90 NA CS HILDA 1964-09-28 12:00:00 TS 21.2000 -80.0000 25 hurdat_atl main 55 55 O_____________ hurdat_atl AL101964 21.2000 -80.0000 TD 25 -1 11 276
1964273N21280 1964 90 NA CS HILDA 1964-09-28 15:00:00 TS 21.2555 -80.5623 main 73 73 P_____________ AL101964 21.2555 -80.5623 TD 25 -1 10 276
1964273N21280 1964 90 NA CS HILDA 1964-09-28 18:00:00 TS 21.3000 -81.1000 25 hurdat_atl main 78 78 O_____________ hurdat_atl AL101964 21.3000 -81.1000 TD 25 -1 10 275
1964273N21280 1964 90 NA CS HILDA 1964-09-28 21:00:00 TS 21.3347 -81.6002 main 88 47 P_____________ AL101964 21.3347 -81.6002 TD 27 -1 9 276
1964273N21280 1964 90 NA CS HILDA 1964-09-29 00:00:00 TS 21.4000 -82.1000 30 hurdat_atl main 47 10 O_____________ hurdat_atl AL101964 21.4000 -82.1000 TD 30 -1 10 282
1964273N21280 1964 90 NA CS HILDA 1964-09-29 03:00:00 TS 21.5403 -82.6541 main 0 0 P_____________ AL101964 21.5403 -82.6541 TD 30 -1 11 286
1964273N21280 1964 90 NA CS HILDA 1964-09-29 06:00:00 TS 21.7000 -83.2000 30 hurdat_atl main 15 15 O_____________ hurdat_atl AL101964 21.7000 -83.2000 TD 30 -1 10 284
1964273N21280 1964 90 NA CS HILDA 1964-09-29 09:00:00 TS 21.7795 -83.6571 main 32 0 P_____________ AL101964 21.7795 -83.6571 TD 32 -1 9 285
1964273N21280 1964 90 NA CS HILDA 1964-09-29 11:00:00 TS 21.9000 -84.0000 35 hurdat_atl main 0 0 O_____________ hurdat_atl AL101964 21.9000 -84.0000 L TS 35 0 11 294
1964273N21280 1964 90 NA NA HILDA 1964-09-29 12:00:00 TS 22.0000 -84.2000 35 hurdat_atl main 0 0 O_____________ hurdat_atl AL101964 22.0000 -84.2000 TS 35 0 11 296
1964273N21280 1964 90 NA GM HILDA 1964-09-29 15:00:00 TS 22.2268 -84.7273 main 30 30 P_____________ AL101964 22.2268 -84.7273 TS 40 0 10 293
1964273N21280 1964 90 NA GM HILDA 1964-09-29 18:00:00 TS 22.4000 -85.2000 45 hurdat_atl main 59 59 O_____________ hurdat_atl AL101964 22.4000 -85.2000 TS 45 0 10 293
1964273N21280 1964 90 NA GM HILDA 1964-09-29 21:00:00 TS 22.6073 -85.7001 main 106 106 P_____________ AL101964 22.6073 -85.7001 TS 50 0 10 293
1964273N21280 1964 90 NA GM HILDA 1964-09-30 00:00:00 TS 22.8000 -86.2000 55 997 hurdat_atl main 159 159 O_____________ hurdat_atl AL101964 22.8000 -86.2000 TS 55 997 0 10 291
1964273N21280 1964 90 NA GM HILDA 1964-09-30 03:00:00 TS 22.9573 -86.7002 main 170 167 P_____________ AL101964 22.9573 -86.7002 TS 57 995 0 10 288
1964273N21280 1964 90 NA GM HILDA 1964-09-30 06:00:00 TS 23.1000 -87.2000 60 994 hurdat_atl main 179 179 O_____________ hurdat_atl AL101964 23.1000 -87.2000 TS 60 994 0 10 287
1964273N21280 1964 90 NA GM HILDA 1964-09-30 09:00:00 TS 23.2425 -87.7151 main 190 190 P_____________ AL101964 23.2425 -87.7151 TS 65 989 1 10 288
1964273N21280 1964 90 NA GM HILDA 1964-09-30 12:00:00 TS 23.4000 -88.2000 70 984 hurdat_atl main 212 212 O_____________ hurdat_atl AL101964 23.4000 -88.2000 HU 70 984 1 9 293
1964273N21280 1964 90 NA GM HILDA 1964-09-30 15:00:00 TS 23.5999 -88.6374 main 234 234 P_____________ AL101964 23.5999 -88.6374 HU 75 981 1 8 299
1964273N21280 1964 90 NA GM HILDA 1964-09-30 18:00:00 TS 23.8000 -89.0000 80 978 hurdat_atl main 260 260 O_____________ hurdat_atl AL101964 23.8000 -89.0000 HU 80 978 1 7 302
1964273N21280 1964 90 NA GM HILDA 1964-09-30 21:00:00 TS 23.9648 -89.2652 main 288 288 P_____________ AL101964 23.9648 -89.2652 HU 82 977 1 5 303
1964273N21280 1964 90 NA GM HILDA 1964-10-01 00:00:00 TS 24.1000 -89.5000 85 977 hurdat_atl main 304 304 O_____________ hurdat_atl AL101964 24.1000 -89.5000 HU 85 977 2 5 296
1964273N21280 1964 90 NA GM HILDA 1964-10-01 03:00:00 TS 24.2075 -89.8001 main 325 325 P_____________ AL101964 24.2075 -89.8001 HU 95 966 2 6 290
1964273N21280 1964 90 NA GM HILDA 1964-10-01 06:00:00 TS 24.3000 -90.1000 105 955 hurdat_atl main 345 345 O_____________ hurdat_atl AL101964 24.3000 -90.1000 HU 105 955 3 5 290
1964273N21280 1964 90 NA GM HILDA 1964-10-01 09:00:00 TS 24.3924 -90.3576 main 361 361 P_____________ AL101964 24.3924 -90.3576 HU 107 953 3 5 294
1964273N21280 1964 90 NA GM HILDA 1964-10-01 12:00:00 TS 24.5000 -90.6000 110 951 hurdat_atl main 375 375 O_____________ hurdat_atl AL101964 24.5000 -90.6000 HU 110 951 3 5 297
1964273N21280 1964 90 NA GM HILDA 1964-10-01 15:00:00 TS 24.6275 -90.8576 main 393 393 P_____________ AL101964 24.6275 -90.8576 HU 115 946 4 5 303
1964273N21280 1964 90 NA GM HILDA 1964-10-01 18:00:00 TS 24.8000 -91.1000 120 941 hurdat_atl main 420 420 O_____________ hurdat_atl AL101964 24.8000 -91.1000 HU 120 941 4 6 314
1964273N21280 1964 90 NA GM HILDA 1964-10-01 21:00:00 TS 25.0350 -91.3224 main 447 428 P_____________ AL101964 25.0350 -91.3224 HU 120 941 4 6 324
1964273N21280 1964 90 NA GM HILDA 1964-10-02 00:00:00 TS 25.3000 -91.5000 120 942 hurdat_atl main 428 407 O_____________ hurdat_atl AL101964 25.3000 -91.5000 HU 120 942 4 6 332
1964273N21280 1964 90 NA GM HILDA 1964-10-02 03:00:00 TS 25.5500 -91.6300 main 407 376 P_____________ AL101964 25.5500 -91.6300 HU 115 945 4 5 340
1964273N21280 1964 90 NA GM HILDA 1964-10-02 06:00:00 TS 25.8000 -91.7000 110 hurdat_atl main 376 355 I_____________ hurdat_atl AL101964 25.8000 -91.7000 HU 110 949 3 5 351
1964273N21280 1964 90 NA GM HILDA 1964-10-02 09:00:00 TS 26.0500 -91.7225 main 355 322 P_____________ AL101964 26.0500 -91.7225 HU 107 952 3 5 2
1964273N21280 1964 90 NA GM HILDA 1964-10-02 12:00:00 TS 26.3000 -91.7000 105 956 hurdat_atl main 322 300 O_____________ hurdat_atl AL101964 26.3000 -91.7000 HU 105 956 3 5 5
1964273N21280 1964 90 NA GM HILDA 1964-10-02 15:00:00 TS 26.5575 -91.6799 main 289 265 P_____________ AL101964 26.5575 -91.6799 HU 102 957 3 5 10
1964273N21280 1964 90 NA GM HILDA 1964-10-02 18:00:00 TS 26.8000 -91.6000 100 hurdat_atl main 265 239 I_____________ hurdat_atl AL101964 26.8000 -91.6000 HU 100 958 3 5 30
1964273N21280 1964 90 NA GM HILDA 1964-10-02 21:00:00 TS 27.0001 -91.3927 main 239 214 P_____________ AL101964 27.0001 -91.3927 HU 100 959 3 5 42
1964273N21280 1964 90 NA GM HILDA 1964-10-03 00:00:00 TS 27.2000 -91.2000 100 960 hurdat_atl main 214 192 O_____________ hurdat_atl AL101964 27.2000 -91.2000 HU 100 960 3 5 24
1964273N21280 1964 90 NA GM HILDA 1964-10-03 03:00:00 TS 27.4499 -91.1624 main 192 159 P_____________ AL101964 27.4499 -91.1624 HU 100 962 3 5 2
1964273N21280 1964 90 NA GM HILDA 1964-10-03 06:00:00 TS 27.7000 -91.2000 100 964 hurdat_atl main 159 137 O_____________ hurdat_atl AL101964 27.7000 -91.2000 HU 100 964 3 4 352
1964273N21280 1964 90 NA GM HILDA 1964-10-03 09:00:00 TS 27.8850 -91.2276 main 137 118 P_____________ AL101964 27.8850 -91.2276 HU 97 963 3 4 348
1964273N21280 1964 90 NA GM HILDA 1964-10-03 12:00:00 TS 28.1000 -91.3000 95 962 hurdat_atl main 118 92 O_____________ hurdat_atl AL101964 28.1000 -91.3000 HU 95 962 2 6 338
1964273N21280 1964 90 NA GM HILDA 1964-10-03 15:00:00 TS 28.4166 -91.4695 main 97 65 P_____________ AL101964 28.4166 -91.4695 HU 92 961 2 8 339
1964273N21280 1964 90 NA GM HILDA 1964-10-03 18:00:00 TS 28.8000 -91.6000 90 961 hurdat_atl main 65 38 O_____________ hurdat_atl AL101964 28.8000 -91.6000 HU 90 961 2 8 355
1964273N21280 1964 90 NA GM HILDA 1964-10-03 21:00:00 TS 29.1724 -91.5415 main 29 0 P_____________ AL101964 29.1724 -91.5415 HU 90 959 2 9 7
1964273N21280 1964 90 NA GM HILDA 1964-10-03 23:00:00 TS 29.5000 -91.5000 90 959 hurdat_atl main 0 0 O_____________ hurdat_atl AL101964 29.5000 -91.5000 L HU 90 959 2 11 5
1964273N21280 1964 90 NA NA HILDA 1964-10-04 00:00:00 TS 29.7000 -91.5000 90 959 hurdat_atl main 0 0 O_____________ hurdat_atl AL101964 29.7000 -91.5000 HU 90 959 2 8 5
1964273N21280 1964 90 NA NA HILDA 1964-10-04 03:00:00 TS 30.0504 -91.4568 main 0 0 P_____________ AL101964 30.0504 -91.4568 HU 80 1 5 19
1964273N21280 1964 90 NA NA HILDA 1964-10-04 06:00:00 TS 30.2000 -91.3000 70 hurdat_atl main 0 0 O_____________ hurdat_atl AL101964 30.2000 -91.3000 HU 70 1 5 44
1964273N21280 1964 90 NA NA HILDA 1964-10-04 09:00:00 TS 30.4296 -91.0327 main 0 0 P_____________ AL101964 30.4296 -91.0327 HU 65 1 7 56
1964273N21280 1964 90 NA NA HILDA 1964-10-04 12:00:00 TS 30.6000 -90.6000 60 hurdat_atl main 0 0 O_____________ hurdat_atl AL101964 30.6000 -90.6000 TS 60 0 9 73
1964273N21280 1964 90 NA NA HILDA 1964-10-04 15:00:00 TS 30.6947 -90.0252 main 0 0 P_____________ AL101964 30.6947 -90.0252 TS 57 0 11 85
1964273N21280 1964 90 NA NA HILDA 1964-10-04 18:00:00 TS 30.7000 -89.3000 55 hurdat_atl main 0 0 O_____________ hurdat_atl AL101964 30.7000 -89.3000 TS 55 0 13 94
1964273N21280 1964 90 NA NA HILDA 1964-10-04 21:00:00 TS 30.6001 -88.4715 main 0 0 P_____________ AL101964 30.6001 -88.4715 TS 52 0 15 98
1964273N21280 1964 90 NA NA HILDA 1964-10-05 00:00:00 ET 30.5000 -87.6000 50 hurdat_atl main 0 0 O_____________ hurdat_atl AL101964 30.5000 -87.6000 EX 50 -4 14 93
1964273N21280 1964 90 NA NA HILDA 1964-10-05 03:00:00 ET 30.5194 -86.7928 main 0 0 P_____________ AL101964 30.5194 -86.7928 EX 50 -4 14 86
1964273N21280 1964 90 NA NA HILDA 1964-10-05 06:00:00 ET 30.6000 -86.0000 50 hurdat_atl main 0 0 O_____________ hurdat_atl AL101964 30.6000 -86.0000 EX 50 -4 14 83
1964273N21280 1964 90 NA NA HILDA 1964-10-05 09:00:00 ET 30.6916 -85.2224 main 0 0 P_____________ AL101964 30.6916 -85.2224 EX 47 -4 14 82
1964273N21280 1964 90 NA NA HILDA 1964-10-05 12:00:00 ET 30.8000 -84.4000 45 hurdat_atl main 0 0 O_____________ hurdat_atl AL101964 30.8000 -84.4000 EX 45 -4 15 82
1964273N21280 1964 90 NA NA HILDA 1964-10-05 15:00:00 ET 30.9148 -83.4728 main 0 0 P_____________ AL101964 30.9148 -83.4728 EX 45 -4 16 83
1964273N21280 1964 90 NA NA HILDA 1964-10-05 18:00:00 ET 31.0000 -82.5000 45 hurdat_atl main 0 0 O_____________ hurdat_atl AL101964 31.0000 -82.5000 EX 45 -4 17 86
1964273N21280 1964 90 NA NA HILDA 1964-10-05 21:00:00 ET 31.0298 -81.5275 main 0 0 P_____________ AL101964 31.0298 -81.5275 EX 45 -4 16 90
1964273N21280 1964 90 NA NA HILDA 1964-10-06 00:00:00 ET 31.0000 -80.6000 45 hurdat_atl main 74 74 O_____________ hurdat_atl AL101964 31.0000 -80.6000 EX 45 -4 15 94
1964273N21280 1964 90 NA NA HILDA 1964-10-06 03:00:00 ET 30.9148 -79.7322 main 158 158 P_____________ AL101964 30.9148 -79.7322 EX 45 -4 14 98
1964273N21280 1964 90 NA NA HILDA 1964-10-06 06:00:00 ET 30.8000 -79.0000 45 hurdat_atl main 217 217 O_____________ hurdat_atl AL101964 30.8000 -79.0000 EX 45 -4 11 101
1964273N21280 1964 90 NA NA HILDA 1964-10-06 09:00:00 ET 30.6917 -78.4552 main 254 254 P_____________ AL101964 30.6917 -78.4552 EX 45 -4 9 103
1964273N21280 1964 90 NA NA HILDA 1964-10-06 12:00:00 ET 30.6000 -78.0000 45 hurdat_atl main 292 292 O_____________ hurdat_atl AL101964 30.6000 -78.0000 EX 45 -4 9 100
1964273N21280 1964 90 NA NA HILDA 1964-10-06 15:00:00 ET 30.5427 -77.4626 main 331 331 P_____________ AL101964 30.5427 -77.4626 EX 45 -4 9 97
1964273N21280 1964 90 NA NA HILDA 1964-10-06 18:00:00 ET 30.5000 -77.0000 45 hurdat_atl main 359 359 O_____________ hurdat_atl AL101964 30.5000 -77.0000 EX 45 -4 7 97
1964273N21280 1964 90 NA NA HILDA 1964-10-06 21:00:00 ET 30.4647 -76.6976 main 377 377 P_____________ AL101964 30.4647 -76.6976 EX 47 -4 4 103
1964273N21280 1964 90 NA NA HILDA 1964-10-07 00:00:00 ET 30.4000 -76.5000 50 hurdat_atl main 398 398 O_____________ hurdat_atl AL101964 30.4000 -76.5000 EX 50 -4 4 122
1964273N21280 1964 90 NA NA HILDA 1964-10-07 03:00:00 ET 30.2650 -76.3199 main 420 420 P_____________ AL101964 30.2650 -76.3199 EX 52 -4 4 139
1964273N21280 1964 90 NA NA HILDA 1964-10-07 06:00:00 ET 30.1000 -76.2000 55 hurdat_atl main 443 443 O_____________ hurdat_atl AL101964 30.1000 -76.2000 EX 55 -4 4 154
1964273N21280 1964 90 NA NA HILDA 1964-10-07 09:00:00 ET 29.9450 -76.1350 main 454 450 P_____________ AL101964 29.9450 -76.1350 EX 55 -4 3 164
1964273N21280 1964 90 NA NA HILDA 1964-10-07 12:00:00 ET 29.8000 -76.1000 55 hurdat_atl main 450 O_____________ hurdat_atl AL101964 29.8000 -76.1000 EX 55 -4 3 168

IBTrACS Databaseについて

本データベースは、米国NOAAが公開する1842年以降の世界の熱帯低気圧のベストトラックデータアーカイブInternational Best Track Archive for Climate Stewardship (IBTrACS)を、ウェブで閲覧しやすい形式に変換したものです。

最終更新日:2021-12-01